Time;durP1;ratioP1;P1;durP2;ratioP2;P2;SDS_P1;SDS_P2;PMS_P1;PMS_P2;Temp;Humidity;BMP_temperature;BMP_pressure;BME280_temperature;BME280_humidity;BME280_pressure;Samples;Min_cycle;Max_cycle;Signal;HPM_P1;HPM_P2
2022/12/31 00:02:46;;;;;;;;;;;;;;;6.72;76.65;101144.78;5399339;32;34225;-69
2022/12/31 00:05:48;;;;;;;;;;;;;;;7.05;75.03;101144.38;5413395;32;45211;-67
2022/12/31 00:08:50;;;;;;;;;;;;;;;7.93;71.13;101143.13;5396178;32;34830;-69
2022/12/31 00:11:52;;;;;;;;;;;;;;;7.79;70.96;101152.06;5413919;32;34158;-67
2022/12/31 00:14:54;;;;;;;;;;;;;;;7.70;71.14;101149.56;5397783;32;35327;-68
2022/12/31 00:17:56;;;;;;;;;;;;;;;7.40;72.97;101163.09;5396730;32;32910;-83
2022/12/31 00:20:58;;;;;;;;;;;;;;;7.31;74.09;101151.87;5415067;32;35825;-83
2022/12/31 00:24:00;;;;;;;;;;;;;;;7.28;73.77;101151.94;5391928;32;35808;-68
2022/12/31 00:27:02;;;;;;;;;;;;;;;7.33;72.61;101157.94;5416644;32;34289;-68
2022/12/31 00:30:04;;;;;;;;;;;;;;;7.67;71.37;101172.31;5396073;32;34337;-76
2022/12/31 00:33:06;;;;;;;;;;;;;;;7.51;72.57;101163.81;5409225;32;35116;-83
2022/12/31 00:36:12;;;;;;;;;;;;;;;7.49;71.80;101170.81;5394271;32;34998;-67
2022/12/31 00:39:14;;;;;;;;;;;;;;;7.99;70.46;101182.31;5385483;32;34725;-82
2022/12/31 00:42:16;;;;;;;;;;;;;;;7.93;70.16;101174.53;5414591;32;35410;-69
2022/12/31 00:45:17;;;;;;;;;;;;;;;7.66;70.45;101183.66;5395048;32;44993;-68
2022/12/31 00:48:19;;;;;;;;;;;;;;;7.20;72.73;101189.50;5415608;32;34975;-83
2022/12/31 00:51:22;;;;;;;;;;;;;;;6.88;73.41;101195.09;5380501;32;35090;-67
2022/12/31 00:54:24;;;;;;;;;;;;;;;7.52;73.09;101187.31;5408617;32;35601;-68
2022/12/31 00:57:26;;;;;;;;;;;;;;;6.83;73.89;101197.78;5400386;32;34800;-83
2022/12/31 01:00:28;;;;;;;;;;;;;;;7.41;73.10;101197.09;5396685;32;35418;-76
2022/12/31 01:03:29;;;;;;;;;;;;;;;7.39;72.82;101193.63;5400664;32;35836;-69
2022/12/31 01:06:31;;;;;;;;;;;;;;;7.27;72.28;101204.22;5396815;32;35537;-83
2022/12/31 01:09:34;;;;;;;;;;;;;;;6.43;76.54;101206.00;5411743;32;35068;-82
2022/12/31 01:12:35;;;;;;;;;;;;;;;7.14;74.23;101207.88;5398145;32;34831;-81
2022/12/31 01:15:37;;;;;;;;;;;;;;;6.98;74.98;101202.84;5408605;32;34222;-69
2022/12/31 01:18:40;;;;;;;;;;;;;;;7.18;74.75;101202.59;5399175;32;34877;-76
2022/12/31 01:21:42;;;;;;;;;;;;;;;7.17;75.10;101200.88;5395892;32;34952;-82
2022/12/31 01:24:44;;;;;;;;;;;;;;;6.53;76.19;101203.31;5414167;32;34355;-67
2022/12/31 01:27:46;;;;;;;;;;;;;;;7.00;75.18;101194.97;5399074;32;45723;-80
2022/12/31 01:30:48;;;;;;;;;;;;;;;6.77;76.04;101192.63;5409523;32;33887;-82
2022/12/31 01:33:50;;;;;;;;;;;;;;;6.36;76.92;101214.78;5391362;32;35664;-68
2022/12/31 01:36:52;;;;;;;;;;;;;;;6.94;76.81;101206.34;5405606;32;34828;-83
2022/12/31 01:39:53;;;;;;;;;;;;;;;5.46;80.49;101206.66;5399130;32;35676;-82
2022/12/31 01:42:55;;;;;;;;;;;;;;;6.15;80.04;101215.81;5399825;32;35029;-83
2022/12/31 01:45:57;;;;;;;;;;;;;;;6.27;79.39;101212.25;5410249;32;34952;-69
2022/12/31 01:49:01;;;;;;;;;;;;;;;6.20;79.25;101208.81;5379836;32;34311;-68
2022/12/31 01:52:03;;;;;;;;;;;;;;;6.68;77.01;101208.38;5392668;32;35367;-83
2022/12/31 01:55:06;;;;;;;;;;;;;;;6.91;75.70;101211.62;5395133;32;35269;-68
2022/12/31 01:58:10;;;;;;;;;;;;;;;6.68;75.67;101216.22;5411459;32;34467;-82
2022/12/31 02:01:12;;;;;;;;;;;;;;;7.24;74.47;101201.66;5400377;32;35016;-82
2022/12/31 02:04:14;;;;;;;;;;;;;;;7.32;73.85;101200.66;5393512;32;35464;-68
2022/12/31 02:07:16;;;;;;;;;;;;;;;6.67;75.41;101206.66;5414712;32;45190;-82
2022/12/31 02:10:18;;;;;;;;;;;;;;;6.26;78.08;101218.34;5397212;32;34871;-82
2022/12/31 02:13:20;;;;;;;;;;;;;;;6.81;75.43;101223.06;5415327;32;34477;-82
2022/12/31 02:16:26;;;;;;;;;;;;;;;7.04;73.71;101210.59;5396727;32;34835;-68
2022/12/31 02:19:51;;;;;;;;;;;;;;;7.28;73.63;101212.06;5407565;32;35279;-83
2022/12/31 02:23:13;;;;;;;;;;;;;;;7.41;72.81;101204.06;5392914;32;44545;-68
2022/12/31 02:26:30;;;;;;;;;;;;;;;8.41;67.27;101209.56;5385383;32;35395;-67
2022/12/31 02:29:50;;;;;;;;;;;;;;;7.15;72.53;101199.16;5412802;32;34632;-75
2022/12/31 02:32:54;;;;;;;;;;;;;;;6.18;77.95;101207.09;5382506;32;45421;-68
2022/12/31 02:35:57;;;;;;;;;;;;;;;7.20;73.68;101211.28;5395400;32;34240;-70
2022/12/31 02:38:59;;;;;;;;;;;;;;;7.95;70.18;101205.03;5412848;32;34933;-76
2022/12/31 02:42:01;;;;;;;;;;;;;;;7.69;70.55;101215.03;5397507;32;35512;-69
2022/12/31 02:45:03;;;;;;;;;;;;;;;6.78;74.41;101229.19;5412558;32;35445;-82
2022/12/31 02:48:17;;;;;;;;;;;;;;;7.01;74.29;101221.09;5399078;32;35728;-83
2022/12/31 02:51:46;;;;;;;;;;;;;;;7.13;74.20;101216.59;5390219;32;45457;-81
2022/12/31 02:55:06;;;;;;;;;;;;;;;7.82;71.22;101212.19;5408529;32;44480;-83
2022/12/31 03:02:12;;;;;;;;;;;;;;;6.96;73.35;101217.69;5408894;32;35619;-68
2022/12/31 03:02:12;;;;;;;;;;;;;;;7.73;70.05;101211.47;5398364;32;34846;-83
2022/12/31 03:05:15;;;;;;;;;;;;;;;7.23;73.22;101203.41;5410477;32;35024;-82
2022/12/31 03:08:24;;;;;;;;;;;;;;;7.21;73.99;101188.63;5393025;32;44787;-68
2022/12/31 03:14:46;;;;;;;;;;;;;;;7.96;70.05;101177.97;5399212;32;45205;-68
2022/12/31 03:17:59;;;;;;;;;;;;;;;7.73;70.97;101201.00;5408083;32;35705;-81
2022/12/31 03:27:43;;;;;;;;;;;;;;;6.63;76.58;101192.75;5414173;32;34849;-82
2022/12/31 03:30:46;;;;;;;;;;;;;;;7.23;72.35;101199.94;5395550;32;36414;-68
2022/12/31 03:33:48;;;;;;;;;;;;;;;7.41;72.60;101201.47;5399099;32;45158;-81
2022/12/31 03:36:50;;;;;;;;;;;;;;;6.84;75.69;101191.69;5405945;32;35597;-68
2022/12/31 03:39:52;;;;;;;;;;;;;;;6.90;75.98;101201.19;5398888;32;34002;-83
2022/12/31 03:42:54;;;;;;;;;;;;;;;6.99;74.88;101201.94;5415441;32;34327;-69
2022/12/31 03:45:58;;;;;;;;;;;;;;;8.07;70.07;101183.91;5398012;32;35158;-76
2022/12/31 03:49:00;;;;;;;;;;;;;;;7.73;70.89;101177.44;5415572;32;35350;-82
2022/12/31 03:52:02;;;;;;;;;;;;;;;7.20;73.52;101173.81;5377374;32;34795;-82
2022/12/31 03:55:05;;;;;;;;;;;;;;;7.26;72.90;101182.44;5393642;32;35776;-68
2022/12/31 03:58:06;;;;;;;;;;;;;;;8.35;68.22;101186.06;5412915;32;34978;-75
2022/12/31 04:01:08;;;;;;;;;;;;;;;6.79;74.60;101201.31;5404449;32;35588;-69
2022/12/31 04:04:10;;;;;;;;;;;;;;;6.69;76.68;101194.44;5417528;32;35060;-68
2022/12/31 04:07:12;;;;;;;;;;;;;;;6.94;75.88;101192.44;5397225;32;35455;-69
2022/12/31 04:10:15;;;;;;;;;;;;;;;6.78;75.73;101196.97;5414469;32;35296;-68
2022/12/31 04:13:17;;;;;;;;;;;;;;;7.35;73.92;101197.16;5398397;32;47171;-67
2022/12/31 04:16:19;;;;;;;;;;;;;;;7.47;73.91;101194.41;5402173;32;34731;-82
2022/12/31 04:19:21;;;;;;;;;;;;;;;7.13;74.11;101199.16;5411993;32;34966;-82
2022/12/31 04:22:23;;;;;;;;;;;;;;;7.46;73.08;101200.50;5389220;32;34846;-74
2022/12/31 04:25:25;;;;;;;;;;;;;;;7.57;72.87;101188.12;5411111;32;34557;-68
2022/12/31 04:28:26;;;;;;;;;;;;;;;7.54;72.56;101184.72;5394478;32;35467;-68
2022/12/31 04:31:28;;;;;;;;;;;;;;;7.80;72.54;101197.41;5413192;32;34475;-82
2022/12/31 04:34:31;;;;;;;;;;;;;;;7.38;73.53;101215.41;5395850;32;35452;-67
2022/12/31 04:37:33;;;;;;;;;;;;;;;6.12;77.78;101221.06;5392309;32;35361;-67
2022/12/31 04:41:15;;;;;;;;;;;;;;;6.74;77.65;101219.63;5408217;32;34981;-75
2022/12/31 04:43:57;;;;;;;;;;;;;;;6.39;77.45;101229.56;5391691;32;34407;-68
2022/12/31 04:46:59;;;;;;;;;;;;;;;6.82;77.03;101230.00;5414532;32;35464;-83
2022/12/31 04:50:01;;;;;;;;;;;;;;;7.48;74.35;101226.66;5395220;32;34286;-81
2022/12/31 04:53:03;;;;;;;;;;;;;;;7.20;73.90;101234.81;5389747;32;34346;-82
2022/12/31 04:56:05;;;;;;;;;;;;;;;7.39;74.37;101232.84;5403987;32;34830;-76
2022/12/31 04:59:08;;;;;;;;;;;;;;;7.47;73.22;101225.78;5384885;32;35569;-82
2022/12/31 05:02:10;;;;;;;;;;;;;;;8.06;70.83;101242.41;5410755;32;34777;-67
2022/12/31 05:05:12;;;;;;;;;;;;;;;7.16;73.60;101261.91;5397377;32;34251;-83
2022/12/31 05:08:14;;;;;;;;;;;;;;;7.44;73.25;101253.72;5412651;32;34753;-68
2022/12/31 05:11:16;;;;;;;;;;;;;;;6.75;76.07;101265.78;5397527;32;43430;-82
2022/12/31 05:14:18;;;;;;;;;;;;;;;7.24;75.60;101264.41;5406267;32;35243;-68
2022/12/31 05:17:20;;;;;;;;;;;;;;;7.61;73.81;101267.47;5400605;32;35971;-81
2022/12/31 05:20:22;;;;;;;;;;;;;;;6.89;74.35;101277.84;5389324;32;35546;-67
2022/12/31 05:23:24;;;;;;;;;;;;;;;6.38;76.55;101270.47;5416378;32;35559;-83
2022/12/31 05:26:26;;;;;;;;;;;;;;;6.16;79.74;101266.28;5391252;32;34233;-82
2022/12/31 05:29:28;;;;;;;;;;;;;;;5.82;79.64;101278.63;5414577;32;34092;-68
2022/12/31 05:32:30;;;;;;;;;;;;;;;6.17;79.80;101273.22;5396346;32;34857;-82
2022/12/31 05:35:33;;;;;;;;;;;;;;;6.10;79.90;101269.78;5404552;32;35580;-68
2022/12/31 05:38:35;;;;;;;;;;;;;;;7.51;74.76;101268.44;5400581;32;35274;-84
2022/12/31 05:41:37;;;;;;;;;;;;;;;6.77;77.08;101286.69;5393799;32;34640;-75
2022/12/31 05:44:39;;;;;;;;;;;;;;;7.22;75.76;101293.19;5416822;32;34844;-82
2022/12/31 05:47:41;;;;;;;;;;;;;;;5.62;82.54;101313.50;5397162;32;35185;-67
2022/12/31 05:50:43;;;;;;;;;;;;;;;6.36;80.12;101303.53;5399113;32;35802;-82
2022/12/31 05:53:45;;;;;;;;;;;;;;;6.36;79.02;101293.09;5388666;32;35588;-81
2022/12/31 05:56:47;;;;;;;;;;;;;;;6.32;80.48;101298.37;5406527;32;44451;-68
2022/12/31 05:59:52;;;;;;;;;;;;;;;6.11;81.91;101302.84;5407510;32;34887;-82
2022/12/31 06:02:54;;;;;;;;;;;;;;;6.60;79.92;101304.25;5393263;32;35516;-68
2022/12/31 06:05:56;;;;;;;;;;;;;;;6.96;78.04;101293.47;5412403;32;35828;-68
2022/12/31 06:08:58;;;;;;;;;;;;;;;7.39;76.35;101293.00;5397448;32;35031;-68
2022/12/31 06:12:00;;;;;;;;;;;;;;;7.14;76.59;101305.47;5416493;32;36062;-68
2022/12/31 06:15:01;;;;;;;;;;;;;;;6.85;77.99;101300.53;5398007;32;34096;-68
2022/12/31 06:18:03;;;;;;;;;;;;;;;6.72;77.00;101311.97;5403319;32;34504;-83
2022/12/31 06:21:05;;;;;;;;;;;;;;;6.32;80.30;101298.37;5409247;32;35850;-75
2022/12/31 06:24:07;;;;;;;;;;;;;;;7.06;78.38;101292.47;5397436;32;34511;-81
2022/12/31 06:27:09;;;;;;;;;;;;;;;7.70;73.79;101290.00;5413706;32;34904;-67
2022/12/31 06:30:12;;;;;;;;;;;;;;;7.20;75.10;101300.19;5399539;32;34936;-68
2022/12/31 06:33:13;;;;;;;;;;;;;;;6.77;77.41;101302.38;5399066;32;35892;-83
2022/12/31 06:36:16;;;;;;;;;;;;;;;6.91;77.25;101303.09;5395581;32;34937;-82
2022/12/31 06:39:18;;;;;;;;;;;;;;;7.04;76.78;101314.31;5400529;32;45206;-80
2022/12/31 06:42:20;;;;;;;;;;;;;;;7.31;76.72;101307.91;5412672;32;35658;-68
2022/12/31 06:45:21;;;;;;;;;;;;;;;7.34;76.09;101313.09;5399879;32;34586;-69
2022/12/31 06:48:23;;;;;;;;;;;;;;;7.84;73.73;101320.34;5414320;32;35064;-69
2022/12/31 06:51:25;;;;;;;;;;;;;;;7.74;72.56;101318.75;5382554;32;34423;-77
2022/12/31 06:54:27;;;;;;;;;;;;;;;7.87;72.06;101319.47;5410128;32;35604;-77
2022/12/31 06:57:29;;;;;;;;;;;;;;;7.71;73.45;101317.91;5397998;32;34784;-69
2022/12/31 07:00:31;;;;;;;;;;;;;;;7.62;73.18;101331.13;5403965;32;32637;-82
2022/12/31 07:03:36;;;;;;;;;;;;;;;7.29;74.43;101330.59;5410960;32;34778;-77
2022/12/31 07:06:44;;;;;;;;;;;;;;;7.33;75.52;101329.69;5398338;32;34365;-82
2022/12/31 07:09:46;;;;;;;;;;;;;;;7.51;75.23;101329.47;5414621;32;44224;-68
2022/12/31 07:13:08;;;;;;;;;;;;;;;6.96;76.31;101339.66;5399181;32;35551;-83
2022/12/31 07:16:25;;;;;;;;;;;;;;;6.36;78.48;101345.31;5409196;32;34935;-68
2022/12/31 07:19:36;;;;;;;;;;;;;;;6.67;77.78;101347.72;5408896;32;35025;-75
2022/12/31 07:22:38;;;;;;;;;;;;;;;7.43;74.45;101348.75;5397780;32;34740;-67
2022/12/31 07:25:43;;;;;;;;;;;;;;;6.91;76.04;101363.22;5414663;32;34784;-82
2022/12/31 07:28:51;;;;;;;;;;;;;;;7.15;76.09;101369.97;5398200;32;34576;-83
2022/12/31 07:31:56;;;;;;;;;;;;;;;7.18;75.17;101353.38;5407103;32;44586;-82
2022/12/31 07:35:04;;;;;;;;;;;;;;;7.46;74.16;101346.97;5398038;32;34795;-76
2022/12/31 07:38:21;;;;;;;;;;;;;;;7.57;72.08;101350.34;5390063;32;34342;-82
2022/12/31 07:41:25;;;;;;;;;;;;;;;8.12;71.77;101340.94;5411703;32;44451;-68
2022/12/31 07:44:40;;;;;;;;;;;;;;;8.60;67.63;101339.38;5395306;32;35608;-69
2022/12/31 07:47:42;;;;;;;;;;;;;;;8.57;68.38;101339.44;5404638;32;34791;-82
2022/12/31 07:50:44;;;;;;;;;;;;;;;7.91;70.06;101359.53;5388800;32;34945;-68
2022/12/31 07:53:46;;;;;;;;;;;;;;;7.32;72.16;101370.66;5382231;32;44733;-80
2022/12/31 07:56:48;;;;;;;;;;;;;;;8.18;70.64;101356.56;5410664;32;45586;-82
2022/12/31 07:59:50;;;;;;;;;;;;;;;8.52;68.25;101356.09;5394387;32;36632;-82
2022/12/31 08:02:55;;;;;;;;;;;;;;;8.06;70.90;101357.59;5406501;32;35759;-68
2022/12/31 08:06:07;;;;;;;;;;;;;;;8.29;70.25;101372.09;5398486;32;34866;-76
2022/12/31 08:09:12;;;;;;;;;;;;;;;8.70;67.86;101370.69;5389689;32;35449;-82
2022/12/31 08:12:14;;;;;;;;;;;;;;;7.78;71.93;101374.50;5405031;32;36482;-68
2022/12/31 08:15:17;;;;;;;;;;;;;;;7.20;74.03;101386.47;5394415;32;35430;-81
2022/12/31 08:18:19;;;;;;;;;;;;;;;7.65;73.36;101386.00;5409659;32;35092;-69
2022/12/31 08:21:24;;;;;;;;;;;;;;;7.90;71.70;101373.50;5397935;32;34297;-83
2022/12/31 08:24:39;;;;;;;;;;;;;;;8.54;70.40;101372.66;5400631;32;35973;-82
2022/12/31 08:27:45;;;;;;;;;;;;;;;9.07;66.21;101400.63;5397670;32;34675;-82
2022/12/31 08:30:52;;;;;;;;;;;;;;;8.48;69.11;101406.81;5396959;32;42702;-81
2022/12/31 08:34:03;;;;;;;;;;;;;;;8.64;67.87;101400.47;5394886;32;34358;-83
2022/12/31 08:37:07;;;;;;;;;;;;;;;7.01;75.10;101426.72;5393362;32;35685;-67
2022/12/31 08:40:32;;;;;;;;;;;;;;;8.41;70.51;101424.38;5414046;32;35465;-83
2022/12/31 08:43:40;;;;;;;;;;;;;;;7.95;71.46;101432.78;5368222;32;36011;-76
2022/12/31 08:47:00;;;;;;;;;;;;;;;8.66;69.02;101427.50;5400787;32;34834;-68
2022/12/31 08:50:03;;;;;;;;;;;;;;;9.45;65.28;101428.81;5389488;32;35382;-82
2022/12/31 08:53:05;;;;;;;;;;;;;;;8.18;69.82;101436.84;5375427;32;35083;-68
2022/12/31 08:56:09;;;;;;;;;;;;;;;7.98;71.34;101445.81;5413832;32;35373;-85
2022/12/31 08:59:30;;;;;;;;;;;;;;;8.57;68.31;101439.00;5397970;32;34878;-82
2022/12/31 09:02:31;;;;;;;;;;;;;;;9.26;66.43;101439.66;5396425;32;34306;-82
2022/12/31 09:05:51;;;;;;;;;;;;;;;7.83;71.92;101435.53;5413591;32;35423;-69
2022/12/31 09:08:59;;;;;;;;;;;;;;;8.82;70.24;101439.53;5393620;32;45252;-68
2022/12/31 09:12:04;;;;;;;;;;;;;;;9.33;66.64;101436.91;5397082;32;35557;-69
2022/12/31 09:15:06;;;;;;;;;;;;;;;8.70;67.73;101444.06;5371713;32;935273;-69
2022/12/31 09:18:08;;;;;;;;;;;;;;;8.64;67.80;101440.66;5404320;32;35416;-67
2022/12/31 09:21:12;;;;;;;;;;;;;;;8.24;69.26;101418.44;5406129;32;35654;-82
2022/12/31 09:24:14;;;;;;;;;;;;;;;7.71;73.22;101435.66;5395514;32;35630;-70
2022/12/31 09:27:17;;;;;;;;;;;;;;;8.82;69.46;101426.41;5412884;32;42558;-81
2022/12/31 09:30:28;;;;;;;;;;;;;;;9.37;66.70;101429.87;5396471;32;34929;-68
2022/12/31 09:33:41;;;;;;;;;;;;;;;8.23;70.15;101424.56;5403531;32;34261;-68
2022/12/31 09:36:45;;;;;;;;;;;;;;;9.29;67.15;101416.03;5394619;32;35108;-68
2022/12/31 09:39:47;;;;;;;;;;;;;;;9.37;67.20;101411.50;5397710;32;46617;-83
2022/12/31 09:43:08;;;;;;;;;;;;;;;8.89;68.96;101393.09;5412000;32;34387;-84
2022/12/31 09:46:29;;;;;;;;;;;;;;;8.92;67.17;101401.75;5397899;32;34755;-85
2022/12/31 09:49:31;;;;;;;;;;;;;;;9.53;65.73;101384.06;5409643;32;35384;-76
2022/12/31 09:52:46;;;;;;;;;;;;;;;10.14;64.14;101372.34;5379086;32;35015;-85
2022/12/31 09:55:50;;;;;;;;;;;;;;;9.32;65.50;101366.13;5396968;32;45074;-82
2022/12/31 09:59:02;;;;;;;;;;;;;;;10.28;63.22;101349.28;5412234;32;34754;-84
2022/12/31 10:02:13;;;;;;;;;;;;;;;10.84;61.11;101357.59;5396490;32;34988;-68
2022/12/31 10:05:28;;;;;;;;;;;;;;;10.91;60.93;101357.44;5411447;32;34811;-69
2022/12/31 10:08:49;;;;;;;;;;;;;;;9.74;63.50;101346.91;5397148;32;35017;-69
2022/12/31 10:11:54;;;;;;;;;;;;;;;10.01;63.97;101345.47;5382211;32;44591;-83
2022/12/31 10:14:56;;;;;;;;;;;;;;;10.90;61.27;101356.59;5412807;32;35302;-68
2022/12/31 10:18:12;;;;;;;;;;;;;;;10.63;61.74;101352.88;5397120;32;34904;-82
2022/12/31 10:21:33;;;;;;;;;;;;;;;11.06;59.38;101357.06;5410662;32;34250;-82
2022/12/31 10:24:48;;;;;;;;;;;;;;;10.63;61.17;101358.13;5400110;32;34591;-69
2022/12/31 10:27:54;;;;;;;;;;;;;;;11.01;60.31;101364.19;5388830;32;45131;-68
2022/12/31 10:31:01;;;;;;;;;;;;;;;10.80;60.85;101363.81;5409970;32;35073;-68
2022/12/31 10:34:03;;;;;;;;;;;;;;;10.64;61.83;101367.75;5389006;32;34540;-69
2022/12/31 10:37:05;;;;;;;;;;;;;;;9.99;64.08;101376.16;5410128;32;35334;-73
2022/12/31 10:40:07;;;;;;;;;;;;;;;10.10;64.24;101360.16;5392344;32;34900;-69
2022/12/31 10:43:15;;;;;;;;;;;;;;;10.98;61.52;101359.88;5400107;32;34390;-83
2022/12/31 10:46:29;;;;;;;;;;;;;;;10.74;60.94;101366.59;5407791;32;46026;-83
2022/12/31 10:49:40;;;;;;;;;;;;;;;9.86;64.19;101379.09;5395949;32;34758;-68
2022/12/31 10:52:42;;;;;;;;;;;;;;;10.15;63.84;101345.16;5388333;32;35099;-84
2022/12/31 10:55:44;;;;;;;;;;;;;;;9.95;63.94;101369.25;5394304;32;35264;-82
2022/12/31 10:59:05;;;;;;;;;;;;;;;10.29;63.52;101358.87;5409872;32;45193;-71
2022/12/31 11:02:07;;;;;;;;;;;;;;;10.93;61.43;101358.25;5411767;32;35411;-68
2022/12/31 11:05:24;;;;;;;;;;;;;;;9.88;65.25;101357.12;5384496;32;34871;-83
2022/12/31 11:08:38;;;;;;;;;;;;;;;10.66;62.23;101357.19;5413541;32;46305;-68
2022/12/31 11:11:46;;;;;;;;;;;;;;;9.91;65.55;101337.81;5385268;32;36032;-85
2022/12/31 11:15:07;;;;;;;;;;;;;;;10.13;65.45;101356.63;5398138;32;44867;-68
2022/12/31 11:18:16;;;;;;;;;;;;;;;10.10;65.00;101354.91;5415872;32;35085;-82
2022/12/31 11:21:34;;;;;;;;;;;;;;;10.48;64.45;101337.44;5393028;32;44881;-68
2022/12/31 11:24:57;;;;;;;;;;;;;;;9.99;65.30;101344.66;5414691;32;34221;-68
2022/12/31 11:28:17;;;;;;;;;;;;;;;10.94;62.39;101341.56;5401117;32;35835;-82
2022/12/31 11:31:41;;;;;;;;;;;;;;;10.38;64.24;101321.03;5393196;32;45532;-83
2022/12/31 11:34:49;;;;;;;;;;;;;;;10.33;64.60;101354.44;5409574;32;35237;-68
2022/12/31 11:37:52;;;;;;;;;;;;;;;10.25;65.55;101345.87;5392579;32;44664;-69
2022/12/31 11:40:54;;;;;;;;;;;;;;;10.07;64.92;101347.09;5411493;32;35373;-78
2022/12/31 11:44:02;;;;;;;;;;;;;;;9.84;66.22;101347.59;5401203;32;35327;-82
2022/12/31 11:47:30;;;;;;;;;;;;;;;10.90;62.38;101346.06;5400772;32;35238;-82
2022/12/31 11:50:32;;;;;;;;;;;;;;;9.73;66.33;101345.19;5397875;32;35387;-85
2022/12/31 11:53:34;;;;;;;;;;;;;;;10.12;64.96;101328.63;5389136;32;35482;-77
2022/12/31 11:56:37;;;;;;;;;;;;;;;10.40;64.81;101316.59;5415160;32;34483;-70
2022/12/31 11:59:39;;;;;;;;;;;;;;;11.02;62.03;101319.47;5394165;32;35556;-81
2022/12/31 12:02:42;;;;;;;;;;;;;;;10.29;64.56;101332.63;5400997;32;34761;-69
2022/12/31 12:05:44;;;;;;;;;;;;;;;10.41;63.88;101338.50;5411105;32;35329;-82
2022/12/31 12:08:46;;;;;;;;;;;;;;;10.65;64.24;101345.81;5393605;32;46433;-68
2022/12/31 12:11:56;;;;;;;;;;;;;;;11.19;62.00;101345.31;5414713;32;44532;-83
2022/12/31 12:14:58;;;;;;;;;;;;;;;10.57;64.45;101348.63;5398061;32;35698;-83
2022/12/31 12:18:04;;;;;;;;;;;;;;;10.92;62.98;101357.41;5411279;32;34411;-68
2022/12/31 12:21:15;;;;;;;;;;;;;;;10.39;63.92;101356.06;5398342;32;35177;-83
2022/12/31 12:24:17;;;;;;;;;;;;;;;11.24;61.59;101359.22;5397657;32;44753;-69
2022/12/31 12:27:20;;;;;;;;;;;;;;;10.95;62.66;101369.59;5414129;32;34912;-70
2022/12/31 12:30:23;;;;;;;;;;;;;;;11.25;62.15;101357.44;5392366;32;35376;-85
2022/12/31 12:33:26;;;;;;;;;;;;;;;11.46;60.46;101351.59;5410052;32;35204;-68
2022/12/31 12:36:27;;;;;;;;;;;;;;;11.25;61.75;101358.31;5393823;32;34898;-83
2022/12/31 12:39:31;;;;;;;;;;;;;;;10.97;62.54;101358.16;5404531;32;34255;-70
2022/12/31 12:42:33;;;;;;;;;;;;;;;11.78;61.03;101342.78;5405035;32;35870;-68
2022/12/31 12:45:42;;;;;;;;;;;;;;;12.43;57.62;101323.31;5397861;32;35011;-69
2022/12/31 12:48:53;;;;;;;;;;;;;;;11.55;59.73;101351.34;5408367;32;44454;-84
2022/12/31 12:52:05;;;;;;;;;;;;;;;11.19;61.84;101342.66;5378393;32;34676;-68
2022/12/31 12:55:16;;;;;;;;;;;;;;;11.60;60.10;101340.69;5409969;32;35014;-68
2022/12/31 12:58:57;;;;;;;;;;;;;;;12.03;58.52;101337.69;5399201;32;45221;-68
2022/12/31 13:02:17;;;;;;;;;;;;;;;11.36;60.70;101344.88;5326280;32;35176;-83
2022/12/31 13:05:20;;;;;;;;;;;;;;;10.93;62.70;101324.06;5363571;32;44644;-83
2022/12/31 13:08:34;;;;;;;;;;;;;;;10.84;64.10;101339.19;5398844;32;33403;-72
2022/12/31 13:11:39;;;;;;;;;;;;;;;10.51;64.03;101332.13;5402673;32;33888;-82
2022/12/31 13:14:41;;;;;;;;;;;;;;;11.46;61.65;101327.03;5412176;32;35539;-83
2022/12/31 13:17:58;;;;;;;;;;;;;;;11.68;60.67;101307.09;5398863;32;35660;-84
2022/12/31 13:21:29;;;;;;;;;;;;;;;11.77;60.54;101330.53;5411908;32;35512;-81
2022/12/31 13:24:31;;;;;;;;;;;;;;;11.87;60.32;101331.16;5379529;32;34616;-69
2022/12/31 13:27:34;;;;;;;;;;;;;;;11.29;61.99;101348.56;5399845;32;34292;-68
2022/12/31 13:30:40;;;;;;;;;;;;;;;10.91;63.11;101354.81;5409680;32;34915;-82
2022/12/31 13:33:47;;;;;;;;;;;;;;;12.36;58.72;101354.25;5392211;32;34754;-69
2022/12/31 13:36:49;;;;;;;;;;;;;;;11.68;60.75;101345.75;5409555;32;45630;-81
2022/12/31 13:39:54;;;;;;;;;;;;;;;11.96;59.85;101351.09;5394739;32;34997;-84
2022/12/31 13:42:59;;;;;;;;;;;;;;;11.62;60.68;101352.03;5407843;32;35081;-68
2022/12/31 13:46:07;;;;;;;;;;;;;;;12.26;58.80;101338.78;5400813;32;34684;-68
2022/12/31 13:49:20;;;;;;;;;;;;;;;11.27;62.20;101340.72;5392775;32;35482;-69
2022/12/31 13:52:39;;;;;;;;;;;;;;;11.61;60.75;101337.16;5391442;32;45735;-69
2022/12/31 13:55:43;;;;;;;;;;;;;;;11.38;61.62;101328.09;5396780;32;35045;-84
2022/12/31 13:59:02;;;;;;;;;;;;;;;10.78;64.14;101339.34;5408171;32;35497;-68
2022/12/31 14:02:23;;;;;;;;;;;;;;;11.03;63.77;101363.25;5401980;32;34985;-81
2022/12/31 14:05:28;;;;;;;;;;;;;;;11.26;63.39;101374.94;5395505;32;44905;-68
2022/12/31 14:08:30;;;;;;;;;;;;;;;11.28;63.09;101384.56;5413562;32;34967;-83
2022/12/31 14:11:51;;;;;;;;;;;;;;;11.53;62.85;101361.06;5396953;32;36121;-76
2022/12/31 14:14:56;;;;;;;;;;;;;;;11.85;61.24;101354.94;5408538;32;44631;-68
2022/12/31 14:18:16;;;;;;;;;;;;;;;10.90;64.25;101377.62;5405482;32;34904;-68
2022/12/31 14:21:27;;;;;;;;;;;;;;;11.36;62.85;101366.78;5394861;32;44596;-82
2022/12/31 14:24:50;;;;;;;;;;;;;;;11.43;63.23;101371.88;5412184;32;34319;-78
2022/12/31 14:27:52;;;;;;;;;;;;;;;12.16;60.52;101361.91;5397304;32;48039;-82
2022/12/31 14:31:15;;;;;;;;;;;;;;;12.07;60.81;101362.19;5402293;32;36393;-84
2022/12/31 14:34:20;;;;;;;;;;;;;;;12.35;59.41;101357.78;5410549;32;44544;-68
2022/12/31 14:37:26;;;;;;;;;;;;;;;11.29;62.77;101370.47;5394553;32;34721;-84
2022/12/31 14:40:31;;;;;;;;;;;;;;;11.59;62.59;101387.22;5414336;32;34374;-83
2022/12/31 14:43:38;;;;;;;;;;;;;;;11.81;62.17;101379.63;5396180;32;34877;-84
2022/12/31 14:46:43;;;;;;;;;;;;;;;12.06;61.03;101373.66;5409827;32;34759;-83
2022/12/31 14:49:51;;;;;;;;;;;;;;;12.10;60.43;101360.31;5407699;32;35515;-83
2022/12/31 14:52:59;;;;;;;;;;;;;;;11.44;62.89;101357.81;5378741;32;44892;-68
2022/12/31 14:56:02;;;;;;;;;;;;;;;11.23;63.62;101346.97;5413970;32;35050;-77
2022/12/31 14:59:18;;;;;;;;;;;;;;;11.58;62.74;101371.44;5396384;32;34532;-70
2022/12/31 15:02:33;;;;;;;;;;;;;;;12.00;61.30;101358.87;5411779;32;45333;-84
2022/12/31 15:05:35;;;;;;;;;;;;;;;12.11;60.77;101367.34;5404618;32;34709;-84
2022/12/31 15:08:50;;;;;;;;;;;;;;;11.37;62.80;101363.25;5398302;32;36629;-67
2022/12/31 15:12:07;;;;;;;;;;;;;;;11.31;63.42;101375.69;5416024;32;45177;-84
2022/12/31 15:15:12;;;;;;;;;;;;;;;11.12;64.45;101365.66;5399746;32;34406;-68
2022/12/31 15:18:26;;;;;;;;;;;;;;;11.12;64.60;101362.16;5398064;32;34605;-68
2022/12/31 15:21:34;;;;;;;;;;;;;;;11.44;63.06;101352.53;5404516;32;34928;-82
2022/12/31 15:24:36;;;;;;;;;;;;;;;10.93;65.21;101366.16;5399313;32;35822;-69
2022/12/31 15:27:41;;;;;;;;;;;;;;;10.16;68.44;101378.41;5413906;32;34962;-82
2022/12/31 15:30:46;;;;;;;;;;;;;;;10.29;68.37;101389.56;5394091;32;34852;-83
2022/12/31 15:33:53;;;;;;;;;;;;;;;10.83;67.43;101379.53;5408128;32;45081;-83
2022/12/31 15:36:56;;;;;;;;;;;;;;;11.39;64.77;101394.78;5394047;32;34799;-69
2022/12/31 15:40:17;;;;;;;;;;;;;;;11.45;64.47;101384.09;5393099;32;35069;-69
2022/12/31 15:43:30;;;;;;;;;;;;;;;11.66;63.91;101382.66;5414735;32;47033;-69
2022/12/31 15:46:35;;;;;;;;;;;;;;;11.54;64.33;101375.97;5386357;32;34668;-83
2022/12/31 15:49:39;;;;;;;;;;;;;;;11.78;63.88;101395.47;5413009;32;35090;-69
2022/12/31 15:52:42;;;;;;;;;;;;;;;11.67;64.72;101397.56;5364373;32;35064;-69
2022/12/31 15:55:45;;;;;;;;;;;;;;;11.42;66.28;101402.59;5400787;32;34854;-69
2022/12/31 15:58:47;;;;;;;;;;;;;;;11.64;65.77;101408.16;5406930;32;45346;-69
2022/12/31 16:01:49;;;;;;;;;;;;;;;11.78;65.14;101384.91;5398395;32;35550;-83
2022/12/31 16:04:51;;;;;;;;;;;;;;;12.11;63.73;101375.25;5410229;32;35614;-82
2022/12/31 16:07:57;;;;;;;;;;;;;;;11.88;64.56;101381.16;5398141;32;33117;-68
2022/12/31 16:10:59;;;;;;;;;;;;;;;12.07;63.98;101383.28;5413798;32;36341;-67
2022/12/31 16:14:00;;;;;;;;;;;;;;;11.85;64.68;101373.38;5395314;32;34263;-76
2022/12/31 16:17:03;;;;;;;;;;;;;;;12.32;63.16;101380.78;5402107;32;33073;-83